Pagina principale
METAR-TAF:

METAR-TAF

Aeroporti :

Bastia, Francia

Aeroporto di Bastia Poretta

latitudine: 42-33N, longitudine: 009-29E, altezza: 8 m

Osservazione

Il bollettino è stato emesso 32 minuti fa, alle 09:00 UTC
Vento 8 kt da est/sud-est, variando fra est e sud-est
Temperature 27°C
Umidità 45%
Pressione 1017 hPa
Visibilità 10 km o più
Poco nuvoloso ad un'altezza di 3000 ft

METAR: LFKB 290900Z 11008KT 080V140 9999 FEW030 27/14 Q1017 NOSIG

Ora: 11:32 (09:32 UTC)

Previsione

Il bollettino è stato emesso 1 ora e 32 minuti fa, alle 08:00 UTC
Previsione valida dal 29 alle 09 UTC al 30 alle 09 UTC
Vento 10 kt da est/sud-est
Visibilità 10 km o più
Poco nuvoloso ad un'altezza di 3000 ft
Evoluzione graduale
dal 29 alle 18 UTC al 29 alle 20 UTC
Vento 3 kt da ovest/sud-ovest

TAF: LFKB 290800Z 2909/3009 12010KT 9999 FEW030 BECMG 2918/2920 24003KT TX28/2912Z TN16/3003Z

Osservazioni e previsioni meteorologiche di più di 4000 aeroporti (messaggi METAR e TAF).

Le stazioni disponibili sono rappresentate dai dischi gialli e rossi sulla carta.

Puntare il mouse per vedere il nome della stazione.

Clicca sopra per visualizzare le osservazioni e previsioni meteorologiche.

Per cambiare la mappa : fare clic sui pulsanti verdi con una croce nera per ingrandire, il pulsante verde con un trattino per diminuire, o sulla freccia verde per le mappe adiacenti.


METAR-TAF: